createdAt,value
2022-09-21T00:01:29.967Z,70.90
2022-09-21T00:04:01.322Z,71.00
2022-09-21T00:06:31.831Z,71.10
2022-09-21T00:08:59.380Z,71.20
2022-09-21T00:11:29.790Z,71.10
2022-09-21T00:14:00.852Z,71.00
2022-09-21T00:16:29.293Z,71.10
2022-09-21T00:18:56.288Z,71.20
2022-09-21T00:21:23.816Z,71.30
2022-09-21T00:23:50.867Z,71.30
2022-09-21T00:26:21.860Z,71.30
2022-09-21T00:28:57.920Z,71.30
2022-09-21T00:31:25.917Z,71.20
2022-09-21T00:33:53.728Z,71.50
2022-09-21T00:36:24.150Z,71.60
2022-09-21T00:38:55.662Z,71.70
2022-09-21T00:41:24.062Z,71.70
2022-09-21T00:44:18.507Z,71.90
2022-09-21T00:46:49.213Z,71.00
2022-09-21T00:49:17.234Z,72.20
2022-09-21T00:51:45.368Z,72.20
2022-09-21T00:54:23.157Z,72.30
2022-09-21T00:56:50.430Z,72.20
2022-09-21T00:59:21.725Z,72.20
2022-09-21T01:01:49.633Z,72.20
2022-09-21T01:04:18.847Z,72.20
2022-09-21T01:06:47.808Z,72.40
2022-09-21T01:09:17.345Z,72.60
2022-09-21T01:11:57.311Z,72.60
2022-09-21T01:15:03.457Z,72.20
2022-09-21T01:18:01.069Z,72.00
2022-09-21T01:21:17.214Z,72.20
2022-09-21T01:24:36.505Z,71.90
2022-09-21T01:27:46.517Z,72.00
2022-09-21T01:30:21.671Z,72.40
2022-09-21T01:33:15.910Z,72.50
2022-09-21T01:35:52.890Z,72.00
2022-09-21T01:38:58.406Z,72.60
2022-09-21T01:41:30.496Z,72.60
2022-09-21T01:44:39.501Z,72.90
2022-09-21T01:47:12.474Z,72.70
2022-09-21T01:49:47.302Z,72.70
2022-09-21T01:52:30.611Z,72.50
2022-09-21T01:55:18.682Z,72.40
2022-09-21T01:57:56.592Z,72.00
2022-09-21T02:00:26.135Z,72.50
2022-09-21T02:03:20.811Z,72.30
2022-09-21T02:05:47.938Z,71.30
2022-09-21T02:08:15.238Z,72.30
2022-09-21T02:10:50.775Z,72.20
2022-09-21T02:13:25.265Z,71.90
2022-09-21T02:16:06.876Z,72.00
2022-09-21T02:19:12.857Z,71.40
2022-09-21T02:22:18.716Z,71.00
2022-09-21T02:24:57.703Z,71.20
2022-09-21T02:27:45.635Z,72.00
2022-09-21T02:30:19.221Z,71.80
2022-09-21T02:32:53.410Z,72.00
2022-09-21T02:35:28.362Z,72.20
2022-09-21T02:38:09.004Z,72.10
2022-09-21T02:41:08.710Z,72.10
2022-09-21T02:43:46.633Z,71.90
2022-09-21T02:46:37.703Z,72.40
2022-09-21T02:49:09.600Z,71.80
2022-09-21T02:51:47.756Z,71.20
2022-09-21T02:54:19.405Z,72.10
2022-09-21T02:56:49.104Z,72.30
2022-09-21T02:59:16.681Z,72.40
2022-09-21T03:01:44.763Z,72.50
2022-09-21T03:04:11.774Z,72.60
2022-09-21T03:06:38.719Z,72.60
2022-09-21T03:09:05.636Z,72.70
2022-09-21T03:11:33.798Z,72.80
2022-09-21T03:14:00.645Z,72.70
2022-09-21T03:16:29.107Z,72.60
2022-09-21T03:18:55.873Z,72.60
2022-09-21T03:21:22.804Z,72.70
2022-09-21T03:23:49.586Z,72.70
2022-09-21T03:26:16.809Z,72.60
2022-09-21T03:28:43.993Z,72.70
2022-09-21T03:31:10.869Z,72.70
2022-09-21T03:33:37.765Z,72.70
2022-09-21T03:36:04.792Z,72.70
2022-09-21T03:38:31.729Z,72.80
2022-09-21T03:40:58.483Z,72.70
2022-09-21T03:43:26.328Z,72.80
2022-09-21T03:45:53.496Z,72.80
2022-09-21T03:48:21.607Z,72.90
2022-09-21T03:50:48.565Z,72.90
2022-09-21T03:53:15.423Z,72.90
2022-09-21T03:55:42.344Z,72.90
2022-09-21T03:58:09.652Z,73.00
2022-09-21T04:00:39.083Z,73.10
2022-09-21T04:03:05.960Z,73.60
2022-09-21T04:05:32.906Z,73.10
2022-09-21T04:08:01.998Z,73.10
2022-09-21T04:10:32.758Z,73.10
2022-09-21T04:13:04.258Z,73.20
2022-09-21T04:15:31.338Z,71.90
2022-09-21T04:17:59.139Z,73.00
2022-09-21T04:20:26.111Z,73.10
2022-09-21T04:22:52.995Z,73.20
2022-09-21T04:25:20.517Z,73.30
2022-09-21T04:27:47.813Z,73.50
2022-09-21T04:30:16.879Z,73.40
2022-09-21T04:32:44.112Z,73.40
2022-09-21T04:35:11.310Z,73.50
2022-09-21T04:37:38.517Z,73.50
2022-09-21T04:40:07.126Z,73.60
2022-09-21T04:42:34.226Z,73.60
2022-09-21T04:45:01.275Z,73.70
2022-09-21T04:47:31.137Z,73.70
2022-09-21T04:49:58.000Z,73.70
2022-09-21T04:52:25.268Z,74.20
2022-09-21T04:54:53.034Z,73.70
2022-09-21T04:57:19.995Z,73.70
2022-09-21T04:59:46.831Z,73.90
2022-09-21T05:02:13.857Z,73.90
2022-09-21T05:04:40.652Z,73.90
2022-09-21T05:07:07.505Z,73.90
2022-09-21T05:09:52.945Z,74.00
2022-09-21T05:12:19.826Z,74.00
2022-09-21T05:14:46.639Z,74.10
2022-09-21T05:17:13.512Z,74.20
2022-09-21T05:19:41.054Z,74.20
2022-09-21T05:22:08.335Z,74.30
2022-09-21T05:24:35.211Z,74.40
2022-09-21T05:27:02.288Z,74.50
2022-09-21T05:29:29.548Z,74.60
2022-09-21T05:32:13.522Z,74.60
2022-09-21T05:34:52.453Z,74.60
2022-09-21T05:37:56.079Z,74.70
2022-09-21T05:40:23.372Z,73.90
2022-09-21T05:42:50.720Z,75.00
2022-09-21T05:45:19.583Z,75.10
2022-09-21T05:48:12.402Z,75.00
2022-09-21T05:51:04.173Z,74.50
2022-09-21T05:54:03.782Z,74.50
2022-09-21T05:56:43.942Z,74.10
2022-09-21T05:59:41.265Z,75.80
2022-09-21T06:02:19.292Z,75.20
2022-09-21T06:04:49.482Z,75.10
2022-09-21T06:07:16.642Z,75.70
2022-09-21T06:09:43.486Z,75.90
2022-09-21T06:12:13.080Z,76.00
2022-09-21T06:14:39.900Z,76.30
2022-09-21T06:17:06.689Z,76.40
2022-09-21T06:19:33.895Z,76.50
2022-09-21T06:22:00.733Z,76.60
2022-09-21T06:24:27.612Z,76.70
2022-09-21T06:26:54.365Z,76.70
2022-09-21T06:29:23.555Z,76.70
2022-09-21T06:31:51.345Z,76.80
2022-09-21T06:34:18.551Z,77.00
2022-09-21T06:36:48.284Z,77.10
2022-09-21T06:39:15.087Z,77.20
2022-09-21T06:41:41.872Z,77.30
2022-09-21T06:44:08.646Z,77.30
2022-09-21T06:46:35.459Z,77.40
2022-09-21T06:49:02.268Z,77.50
2022-09-21T06:51:29.047Z,77.60
2022-09-21T06:53:57.678Z,77.60
2022-09-21T06:56:25.989Z,77.60
2022-09-21T06:58:53.448Z,77.40
2022-09-21T07:01:20.861Z,77.50
2022-09-21T07:03:52.523Z,77.40
2022-09-21T07:06:20.397Z,76.90
2022-09-21T07:11:35.385Z,76.90
2022-09-21T07:14:04.007Z,76.90
2022-09-21T07:16:31.093Z,76.60
2022-09-21T07:19:10.141Z,76.60
2022-09-21T07:21:37.433Z,76.60
2022-09-21T07:24:08.261Z,76.60
2022-09-21T07:26:38.004Z,76.50
2022-09-21T07:29:04.955Z,76.40
2022-09-21T07:31:31.925Z,76.70
2022-09-21T07:33:59.120Z,77.20
2022-09-21T07:36:26.706Z,78.20
2022-09-21T07:38:54.072Z,79.10
2022-09-21T07:41:21.228Z,79.90
2022-09-21T07:43:48.080Z,80.30
2022-09-21T07:46:15.605Z,80.50
2022-09-21T07:48:42.525Z,80.30
2022-09-21T07:51:13.828Z,79.90
2022-09-21T07:53:44.529Z,78.40
2022-09-21T07:56:17.667Z,77.50
2022-09-21T07:59:03.382Z,74.60
2022-09-21T08:01:30.997Z,76.50
2022-09-21T08:03:59.098Z,75.30
2022-09-21T08:06:30.394Z,73.90
2022-09-21T08:08:58.203Z,71.80
2022-09-21T08:11:28.082Z,70.80
2022-09-21T08:14:01.983Z,69.60
2022-09-21T08:16:31.156Z,65.30
2022-09-21T08:18:58.258Z,67.70
2022-09-21T08:21:25.152Z,67.10
2022-09-21T08:23:51.977Z,66.40
2022-09-21T08:26:20.599Z,65.40
2022-09-21T08:28:51.563Z,64.00
2022-09-21T08:31:22.388Z,63.00
2022-09-21T08:33:50.097Z,62.40
2022-09-21T08:36:18.565Z,62.80
2022-09-21T08:38:45.720Z,62.90
2022-09-21T08:41:33.304Z,63.10
2022-09-21T08:44:20.119Z,60.40
2022-09-21T08:47:10.409Z,56.90
2022-09-21T08:49:41.462Z,60.60
2022-09-21T08:52:16.722Z,61.30
2022-09-21T08:55:07.344Z,57.80
2022-09-21T08:57:34.692Z,52.90
2022-09-21T09:00:03.016Z,56.90
2022-09-21T09:02:34.042Z,55.60
2022-09-21T09:05:38.426Z,55.10
2022-09-21T09:08:24.359Z,51.50
2022-09-21T09:11:05.443Z,51.50
2022-09-21T09:13:49.951Z,58.10
2022-09-21T09:16:32.010Z,56.50
2022-09-21T09:19:10.132Z,53.40
2022-09-21T09:21:42.573Z,53.30
2022-09-21T09:24:23.655Z,53.80
2022-09-21T09:27:03.206Z,54.90
2022-09-21T09:29:47.914Z,53.30
2022-09-21T09:32:17.772Z,54.90
2022-09-21T09:34:57.379Z,56.60
2022-09-21T09:37:33.777Z,51.20
2022-09-21T09:40:01.653Z,51.40
2022-09-21T09:43:16.081Z,54.10
2022-09-21T09:46:01.573Z,49.60
2022-09-21T09:48:54.341Z,50.90
2022-09-21T09:51:21.343Z,49.90
2022-09-21T09:53:48.240Z,56.00
2022-09-21T09:56:15.171Z,55.60
2022-09-21T09:58:57.393Z,54.20
2022-09-21T10:01:49.721Z,46.70
2022-09-21T10:04:18.207Z,44.30
2022-09-21T10:06:46.990Z,46.60
2022-09-21T10:09:31.034Z,46.60
2022-09-21T10:12:12.680Z,44.40
2022-09-21T10:14:39.505Z,47.90
2022-09-21T10:17:08.319Z,50.60
2022-09-21T10:19:35.540Z,48.80
2022-09-21T10:22:04.947Z,49.80
2022-09-21T10:24:40.736Z,48.10
2022-09-21T10:27:11.639Z,44.10
2022-09-21T10:29:46.630Z,45.10
2022-09-21T10:32:14.777Z,45.60
2022-09-21T10:35:07.153Z,48.40
2022-09-21T10:37:43.305Z,48.10
2022-09-21T10:40:24.852Z,45.40
2022-09-21T10:42:58.564Z,44.40
2022-09-21T10:45:56.000Z,47.50
2022-09-21T10:48:26.312Z,46.70
2022-09-21T10:50:56.099Z,50.30
2022-09-21T10:53:36.819Z,50.00
2022-09-21T10:56:15.877Z,49.20
2022-09-21T10:59:21.570Z,49.10
2022-09-21T11:01:52.689Z,47.50
2022-09-21T11:04:53.202Z,50.30
2022-09-21T11:07:43.490Z,47.40
2022-09-21T11:10:16.804Z,48.70
2022-09-21T11:12:53.595Z,48.50
2022-09-21T11:15:54.507Z,50.90
2022-09-21T11:18:30.021Z,47.10
2022-09-21T11:21:09.467Z,50.10
2022-09-21T11:23:57.448Z,50.90
2022-09-21T11:26:33.393Z,48.70
2022-09-21T11:29:20.106Z,51.60
2022-09-21T11:32:27.731Z,47.90
2022-09-21T11:35:08.831Z,47.80
2022-09-21T11:38:09.953Z,47.80
2022-09-21T11:40:57.585Z,50.20
2022-09-21T11:43:45.893Z,49.10
2022-09-21T11:46:18.335Z,50.90
2022-09-21T11:50:07.747Z,50.50
2022-09-21T11:52:54.480Z,47.60
2022-09-21T11:56:02.101Z,49.50
2022-09-21T11:58:58.866Z,48.10
2022-09-21T12:02:17.709Z,49.80
2022-09-21T12:04:58.649Z,48.80
2022-09-21T12:07:50.184Z,49.70
2022-09-21T12:10:57.989Z,51.80
2022-09-21T12:13:55.054Z,52.40
2022-09-21T12:16:43.905Z,50.00
2022-09-21T12:19:37.085Z,53.40
2022-09-21T12:22:17.372Z,50.40
2022-09-21T12:24:51.386Z,50.90
2022-09-21T12:27:38.030Z,51.10
2022-09-21T12:30:14.605Z,48.80
2022-09-21T12:32:50.704Z,49.10
2022-09-21T12:35:37.064Z,48.80
2022-09-21T12:38:23.007Z,50.50
2022-09-21T12:41:23.645Z,50.00
2022-09-21T12:44:03.643Z,47.90
2022-09-21T12:46:52.963Z,51.40
2022-09-21T12:49:32.935Z,48.80
2022-09-21T12:52:06.779Z,48.80
2022-09-21T12:54:37.845Z,50.70
2022-09-21T12:57:45.658Z,50.80
2022-09-21T13:00:18.185Z,51.50
2022-09-21T13:02:55.714Z,50.70
2022-09-21T13:05:28.192Z,49.80
2022-09-21T13:08:10.326Z,48.50
2022-09-21T13:10:45.156Z,48.20
2022-09-21T13:13:34.091Z,49.80
2022-09-21T13:16:04.258Z,47.40
2022-09-21T13:18:36.260Z,50.30
2022-09-21T13:21:26.339Z,50.10
2022-09-21T13:24:05.356Z,45.70
2022-09-21T13:26:53.928Z,49.30
2022-09-21T13:29:20.729Z,47.30
2022-09-21T13:32:04.439Z,50.20
2022-09-21T13:34:39.364Z,47.20
2022-09-21T13:37:13.886Z,50.30
2022-09-21T13:40:02.086Z,49.40
2022-09-21T13:42:34.903Z,48.30
2022-09-21T13:45:13.949Z,51.60
2022-09-21T13:47:43.410Z,47.00
2022-09-21T13:50:43.230Z,50.90
2022-09-21T13:53:39.982Z,47.30
2022-09-21T13:56:24.162Z,47.30
2022-09-21T13:58:55.310Z,46.40
2022-09-21T14:01:46.279Z,51.50
2022-09-21T14:04:31.770Z,51.30
2022-09-21T14:07:07.028Z,47.10
2022-09-21T14:10:08.050Z,49.00
2022-09-21T14:12:44.591Z,46.20
2022-09-21T14:15:19.396Z,49.70
2022-09-21T14:18:29.974Z,48.30
2022-09-21T14:21:20.212Z,54.80
2022-09-21T14:24:17.738Z,47.60
2022-09-21T14:26:55.736Z,52.90
2022-09-21T14:29:29.118Z,46.90
2022-09-21T14:32:01.256Z,45.50
2022-09-21T14:34:36.702Z,46.60
2022-09-21T14:37:19.774Z,45.20
2022-09-21T14:39:48.916Z,42.70
2022-09-21T14:42:20.068Z,48.70
2022-09-21T14:44:52.747Z,47.90
2022-09-21T14:48:03.364Z,47.50
2022-09-21T14:50:47.092Z,43.70
2022-09-21T14:53:39.058Z,45.50
2022-09-21T14:56:34.880Z,39.20
2022-09-21T14:59:39.803Z,39.30
2022-09-21T15:02:27.170Z,39.30
2022-09-21T15:05:14.739Z,36.70
2022-09-21T15:08:29.458Z,37.90
2022-09-21T15:11:20.619Z,39.10
2022-09-21T15:14:05.786Z,44.90
2022-09-21T15:16:39.672Z,44.20
2022-09-21T15:19:18.277Z,43.40
2022-09-21T15:21:57.503Z,38.50
2022-09-21T15:24:34.126Z,42.70
2022-09-21T15:27:17.253Z,38.40
2022-09-21T15:29:48.898Z,38.80
2022-09-21T15:32:47.886Z,42.20
2022-09-21T15:35:20.477Z,36.90
2022-09-21T15:37:48.307Z,37.90
2022-09-21T15:40:46.469Z,41.10
2022-09-21T15:43:16.837Z,37.80
2022-09-21T15:45:51.850Z,39.80
2022-09-21T15:48:19.837Z,37.00
2022-09-21T15:50:52.946Z,39.30
2022-09-21T15:53:30.978Z,38.50
2022-09-21T15:56:01.062Z,35.30
2022-09-21T15:58:37.019Z,39.50
2022-09-21T16:01:17.737Z,39.40
2022-09-21T16:03:44.855Z,38.40
2022-09-21T16:06:26.549Z,40.40
2022-09-21T16:08:54.648Z,37.50
2022-09-21T16:11:27.334Z,39.10
2022-09-21T16:14:31.564Z,38.70
2022-09-21T16:17:11.763Z,35.00
2022-09-21T16:19:59.729Z,34.50
2022-09-21T16:22:36.921Z,36.50
2022-09-21T16:25:25.248Z,38.00
2022-09-21T16:28:05.386Z,35.80
2022-09-21T16:30:56.241Z,36.30
2022-09-21T16:33:46.111Z,35.00
2022-09-21T16:36:33.959Z,34.70
2022-09-21T16:39:07.390Z,34.70
2022-09-21T16:41:42.700Z,37.50
2022-09-21T16:44:16.249Z,37.60
2022-09-21T16:46:43.930Z,38.70
2022-09-21T16:49:18.492Z,39.30
2022-09-21T16:51:47.166Z,39.40
2022-09-21T16:54:14.046Z,40.70
2022-09-21T16:56:41.487Z,41.30
2022-09-21T16:59:21.911Z,41.80
2022-09-21T17:01:56.334Z,40.70
2022-09-21T17:04:28.192Z,43.00
2022-09-21T17:06:55.741Z,43.40
2022-09-21T17:09:33.347Z,44.10
2022-09-21T17:12:02.092Z,44.50
2022-09-21T17:14:35.757Z,45.00
2022-09-21T17:17:19.502Z,45.30
2022-09-21T17:19:50.737Z,45.60
2022-09-21T17:22:18.946Z,46.10
2022-09-21T17:24:51.627Z,46.70
2022-09-21T17:27:29.071Z,46.90
2022-09-21T17:29:56.546Z,46.30
2022-09-21T17:32:24.806Z,47.70
2022-09-21T17:35:26.278Z,47.90
2022-09-21T17:37:53.100Z,46.90
2022-09-21T17:40:20.721Z,48.60
2022-09-21T17:42:48.551Z,49.00
2022-09-21T17:45:38.849Z,49.30
2022-09-21T17:48:17.334Z,49.10
2022-09-21T17:50:44.484Z,49.90
2022-09-21T17:53:29.995Z,50.10
2022-09-21T17:56:28.450Z,50.30
2022-09-21T17:59:05.485Z,50.50
2022-09-21T18:01:37.029Z,50.40
2022-09-21T18:04:05.983Z,51.20
2022-09-21T18:06:34.164Z,51.40
2022-09-21T18:09:01.816Z,51.70
2022-09-21T18:12:15.924Z,51.90
2022-09-21T18:15:18.227Z,51.60
2022-09-21T18:18:17.647Z,52.40
2022-09-21T18:21:03.495Z,52.20
2022-09-21T18:23:52.724Z,52.60
2022-09-21T18:26:20.739Z,52.80
2022-09-21T18:28:58.178Z,53.30
2022-09-21T18:32:02.667Z,53.40
2022-09-21T18:34:54.673Z,52.80
2022-09-21T18:37:55.177Z,53.50
2022-09-21T18:40:43.175Z,53.20
2022-09-21T18:43:53.544Z,54.20
2022-09-21T18:46:50.325Z,53.90
2022-09-21T18:49:54.525Z,54.40
2022-09-21T18:52:50.632Z,54.70
2022-09-21T18:55:32.793Z,54.90
2022-09-21T18:58:01.190Z,55.20
2022-09-21T19:00:35.000Z,55.30
2022-09-21T19:03:17.670Z,55.30
2022-09-21T19:06:06.465Z,55.40
2022-09-21T19:08:46.938Z,55.20
2022-09-21T19:11:24.954Z,55.50
2022-09-21T19:14:15.524Z,55.80
2022-09-21T19:17:24.794Z,55.20
2022-09-21T19:20:03.257Z,55.20
2022-09-21T19:23:06.692Z,55.90
2022-09-21T19:25:50.818Z,56.20
2022-09-21T19:28:44.803Z,56.00
2022-09-21T19:31:17.810Z,56.40
2022-09-21T19:33:50.420Z,56.60
2022-09-21T19:36:19.393Z,56.60
2022-09-21T19:38:46.483Z,56.80
2022-09-21T19:41:42.078Z,56.80
2022-09-21T19:44:36.024Z,56.50
2022-09-21T19:47:25.147Z,56.90
2022-09-21T19:49:54.545Z,57.10
2022-09-21T19:52:34.309Z,57.20
2022-09-21T19:55:20.201Z,57.10
2022-09-21T19:58:06.037Z,57.40
2022-09-21T20:00:33.421Z,57.50
2022-09-21T20:03:14.103Z,57.70
2022-09-21T20:05:51.632Z,57.80
2022-09-21T20:08:26.377Z,57.80
2022-09-21T20:11:17.883Z,58.10
2022-09-21T20:14:22.785Z,58.10
2022-09-21T20:17:00.590Z,57.70
2022-09-21T20:19:56.882Z,58.20
2022-09-21T20:22:44.036Z,58.20
2022-09-21T20:25:26.120Z,58.10
2022-09-21T20:27:56.054Z,58.50
2022-09-21T20:30:27.349Z,58.70
2022-09-21T20:33:00.189Z,58.80
2022-09-21T20:35:30.752Z,58.90
2022-09-21T20:38:02.126Z,59.00
2022-09-21T20:40:32.355Z,59.10
2022-09-21T20:43:01.045Z,59.20
2022-09-21T20:45:29.252Z,59.20
2022-09-21T20:48:13.300Z,59.30
2022-09-21T20:50:41.886Z,59.30
2022-09-21T20:53:09.511Z,59.30
2022-09-21T20:55:37.094Z,59.50
2022-09-21T20:58:04.491Z,59.50
2022-09-21T21:00:31.811Z,59.60
2022-09-21T21:02:59.415Z,59.70
2022-09-21T21:05:28.916Z,59.80
2022-09-21T21:07:57.304Z,59.80
2022-09-21T21:10:24.532Z,59.90
2022-09-21T21:12:51.461Z,60.00
2022-09-21T21:15:18.608Z,60.00
2022-09-21T21:17:48.221Z,60.10
2022-09-21T21:20:16.656Z,60.20
2022-09-21T21:22:50.067Z,60.10
2022-09-21T21:25:17.812Z,60.20
2022-09-21T21:27:44.625Z,60.30
2022-09-21T21:30:12.027Z,60.30
2022-09-21T21:32:38.872Z,60.40
2022-09-21T21:35:06.860Z,60.40
2022-09-21T21:37:33.756Z,60.50
2022-09-21T21:40:01.379Z,60.60
2022-09-21T21:42:29.566Z,60.60
2022-09-21T21:44:56.632Z,60.80
2022-09-21T21:47:40.653Z,60.80
2022-09-21T21:50:09.718Z,60.90
2022-09-21T21:52:37.602Z,60.90
2022-09-21T21:55:06.357Z,60.90
2022-09-21T21:57:33.278Z,61.10
2022-09-21T22:00:00.300Z,61.10
2022-09-21T22:02:29.435Z,61.20
2022-09-21T22:04:56.343Z,61.20
2022-09-21T22:07:23.239Z,61.40
2022-09-21T22:09:50.050Z,61.40
2022-09-21T22:12:16.947Z,61.40
2022-09-21T22:14:46.346Z,61.50
2022-09-21T22:17:14.392Z,61.60
2022-09-21T22:19:41.251Z,61.60
2022-09-21T22:22:08.100Z,61.70
2022-09-21T22:24:34.911Z,61.80
2022-09-21T22:27:01.656Z,61.90
2022-09-21T22:29:28.467Z,62.00
2022-09-21T22:31:55.512Z,62.00
2022-09-21T22:34:22.416Z,62.00
2022-09-21T22:36:50.219Z,62.00
2022-09-21T22:39:17.193Z,62.10
2022-09-21T22:41:44.027Z,62.10
2022-09-21T22:44:11.309Z,62.10
2022-09-21T22:46:38.690Z,62.30
2022-09-21T22:49:06.067Z,62.20
2022-09-21T22:51:33.891Z,62.30
2022-09-21T22:54:01.662Z,62.30
2022-09-21T22:56:32.076Z,62.40
2022-09-21T22:59:04.761Z,62.50
2022-09-21T23:01:41.066Z,62.40
2022-09-21T23:04:12.696Z,62.50
2022-09-21T23:06:43.306Z,63.10
2022-09-21T23:09:19.509Z,62.60
2022-09-21T23:11:53.107Z,62.70
2022-09-21T23:14:21.921Z,62.70
2022-09-21T23:16:49.313Z,62.70
2022-09-21T23:19:16.147Z,62.70
2022-09-21T23:21:49.674Z,62.80
2022-09-21T23:24:17.690Z,62.90
2022-09-21T23:26:45.704Z,63.00
2022-09-21T23:29:15.147Z,63.00
2022-09-21T23:31:45.257Z,63.10
2022-09-21T23:34:13.636Z,63.10
2022-09-21T23:36:41.891Z,63.10
2022-09-21T23:39:12.611Z,63.20
2022-09-21T23:41:39.907Z,63.20
2022-09-21T23:44:07.356Z,63.20
2022-09-21T23:46:37.254Z,63.30
2022-09-21T23:49:05.108Z,63.50
2022-09-21T23:51:32.474Z,64.10
2022-09-21T23:54:00.134Z,63.70
2022-09-21T23:56:28.473Z,63.80
2022-09-21T23:58:55.944Z,63.80
